Time;durP1;ratioP1;P1;durP2;ratioP2;P2;SDS_P1;SDS_P2;PMS_P1;PMS_P2;Temp;Humidity;BMP_temperature;BMP_pressure;BME280_temperature;BME280_humidity;BME280_pressure;Samples;Min_cycle;Max_cycle;Signal;HPM_P1;HPM_P2
2022/09/05 00:00:21;;;;;;;7.38;5.20;;;19.90;73.80;;;;;;5095611;28;20046;-39
2022/09/05 00:03:26;;;;;;;7.72;4.72;;;19.90;73.80;;;;;;5096577;28;20112;-40
2022/09/05 00:06:19;;;;;;;8.23;6.40;;;19.80;73.80;;;;;;5095813;28;20040;-38
2022/09/05 00:08:59;;;;;;;6.72;5.50;;;19.80;73.90;;;;;;5096239;28;20142;-38
2022/09/05 00:11:52;;;;;;;8.77;5.25;;;19.80;73.70;;;;;;5095847;28;20474;-38
2022/09/05 00:14:39;;;;;;;7.35;4.95;;;19.80;73.90;;;;;;5096266;28;20032;-38
2022/09/05 00:17:05;;;;;;;9.13;5.22;;;19.80;74.00;;;;;;5096137;28;20016;-38
2022/09/05 00:19:49;;;;;;;8.55;5.68;;;19.70;74.30;;;;;;5095712;28;20108;-40
2022/09/05 00:22:44;;;;;;;8.85;6.03;;;19.70;74.60;;;;;;5096008;28;20093;-39
2022/09/05 00:25:16;;;;;;;8.55;5.18;;;19.60;74.70;;;;;;5095174;28;20034;-38
2022/09/05 00:27:50;;;;;;;11.65;5.70;;;19.60;74.90;;;;;;5094966;28;20032;-38
2022/09/05 00:30:18;;;;;;;8.48;5.90;;;19.60;75.00;;;;;;5095283;28;20101;-38
2022/09/05 00:33:08;;;;;;;7.13;5.60;;;19.60;75.10;;;;;;5095661;28;20028;-38
2022/09/05 00:35:41;;;;;;;8.53;6.07;;;19.70;74.70;;;;;;5095257;28;20024;-38
2022/09/05 00:38:25;;;;;;;7.07;5.20;;;19.60;74.60;;;;;;5095246;28;20020;-38
2022/09/05 00:41:01;;;;;;;7.57;5.70;;;19.50;75.10;;;;;;5093586;28;20094;-38
2022/09/05 00:43:40;;;;;;;8.15;5.63;;;19.40;75.50;;;;;;5095150;28;20103;-39
2022/09/05 00:46:11;;;;;;;7.50;6.35;;;19.30;75.90;;;;;;5094777;28;20020;-38
2022/09/05 00:48:55;;;;;;;9.57;6.30;;;19.30;76.20;;;;;;5094717;28;20055;-38
2022/09/05 00:51:41;;;;;;;8.55;5.95;;;19.30;76.20;;;;;;5094865;28;20107;-38
2022/09/05 00:54:15;;;;;;;8.90;5.95;;;19.30;76.10;;;;;;5094799;28;20495;-38
2022/09/05 00:57:02;;;;;;;6.07;5.47;;;19.30;76.10;;;;;;5093295;28;20016;-37
2022/09/05 00:59:46;;;;;;;6.40;5.70;;;19.30;76.10;;;;;;5093339;28;20028;-37
2022/09/05 01:02:37;;;;;;;10.93;6.57;;;19.30;76.10;;;;;;5092976;28;20062;-38
2022/09/05 01:05:30;;;;;;;9.02;5.95;;;19.30;76.20;;;;;;5094678;28;20054;-38
2022/09/05 01:08:33;;;;;;;8.52;5.60;;;19.30;76.30;;;;;;5094754;28;20032;-39
2022/09/05 01:11:17;;;;;;;7.53;5.88;;;19.30;76.30;;;;;;5094131;28;20032;-39
2022/09/05 01:13:56;;;;;;;14.82;7.03;;;19.30;76.30;;;;;;5094145;28;20028;-38
2022/09/05 01:16:42;;;;;;;8.68;6.03;;;19.30;76.20;;;;;;5093077;28;20051;-38
2022/09/05 01:19:36;;;;;;;11.95;5.68;;;19.30;76.00;;;;;;5093877;28;20070;-38
2022/09/05 01:22:04;;;;;;;9.57;5.75;;;19.30;75.80;;;;;;5092601;28;20092;-37
2022/09/05 01:24:40;;;;;;;8.50;6.35;;;19.30;75.90;;;;;;5093944;28;20016;-37
2022/09/05 01:27:34;;;;;;;8.10;5.90;;;19.30;76.00;;;;;;5093833;28;20112;-39
2022/09/05 01:30:11;;;;;;;6.53;5.40;;;19.30;76.00;;;;;;5093804;28;20074;-39
2022/09/05 01:33:09;;;;;;;8.00;5.60;;;19.20;76.20;;;;;;5094301;28;20038;-39
2022/09/05 01:36:09;;;;;;;8.82;5.68;;;19.10;76.40;;;;;;5092622;28;20020;-38
2022/09/05 01:39:00;;;;;;;6.43;5.37;;;19.10;76.60;;;;;;5093501;28;20027;-38
2022/09/05 01:41:47;;;;;;;6.50;4.72;;;19.10;76.50;;;;;;5092518;28;20035;-39
2022/09/05 01:44:18;;;;;;;12.32;5.57;;;19.00;76.80;;;;;;5092411;28;20030;-38
2022/09/05 01:47:20;;;;;;;6.55;5.82;;;18.90;77.00;;;;;;5093726;28;20024;-38
2022/09/05 01:49:54;;;;;;;8.82;5.70;;;18.90;77.20;;;;;;5092855;28;20430;-39
2022/09/05 01:52:48;;;;;;;13.93;6.03;;;18.90;77.20;;;;;;5093646;28;20059;-38
2022/09/05 01:56:01;;;;;;;7.40;5.85;;;18.90;77.30;;;;;;5092616;28;20435;-39
2022/09/05 01:59:08;;;;;;;10.82;6.05;;;18.90;77.10;;;;;;5091304;28;20028;-38
2022/09/05 02:02:06;;;;;;;7.35;5.60;;;18.90;76.90;;;;;;5091700;28;20114;-38
2022/09/05 02:04:56;;;;;;;8.90;5.70;;;18.90;77.10;;;;;;5093225;28;20047;-38
2022/09/05 02:07:51;;;;;;;6.88;5.50;;;19.10;76.80;;;;;;5093707;28;20032;-38
2022/09/05 02:10:51;;;;;;;10.50;6.07;;;19.10;76.40;;;;;;5093211;28;20111;-38
2022/09/05 02:13:35;;;;;;;7.15;5.82;;;19.10;76.30;;;;;;5093635;28;20036;-38
2022/09/05 02:16:22;;;;;;;8.40;6.03;;;19.00;76.40;;;;;;5091908;28;20024;-38
2022/09/05 02:18:54;;;;;;;9.20;5.65;;;19.00;76.70;;;;;;5093067;28;20066;-38
2022/09/05 02:21:37;;;;;;;9.15;6.20;;;18.90;76.90;;;;;;5093011;28;20035;-39
2022/09/05 02:24:21;;;;;;;7.93;5.38;;;19.00;76.80;;;;;;5092954;28;20073;-39
2022/09/05 02:27:07;;;;;;;6.68;5.35;;;19.00;76.80;;;;;;5092746;28;20028;-38
2022/09/05 02:29:43;;;;;;;8.60;5.75;;;19.00;76.70;;;;;;5092651;28;20097;-38
2022/09/05 02:32:21;;;;;;;8.68;6.47;;;19.00;76.70;;;;;;5092767;28;20103;-38
2022/09/05 02:34:57;;;;;;;7.07;5.90;;;19.10;76.60;;;;;;5093126;28;20107;-38
2022/09/05 02:37:22;;;;;;;8.30;5.80;;;19.10;76.50;;;;;;5092792;28;20384;-38
2022/09/05 02:40:02;;;;;;;8.45;5.40;;;19.10;76.40;;;;;;5092739;28;20024;-38
2022/09/05 02:42:48;;;;;;;7.80;5.77;;;19.20;76.10;;;;;;5093105;28;20055;-39
2022/09/05 02:45:43;;;;;;;7.88;5.32;;;19.20;75.90;;;;;;5092975;28;20062;-38
2022/09/05 02:48:36;;;;;;;7.70;4.72;;;19.30;75.80;;;;;;5092657;28;20020;-37
2022/09/05 02:51:16;;;;;;;7.00;5.68;;;19.30;75.70;;;;;;5094926;28;20021;-38
2022/09/05 02:53:57;;;;;;;7.75;5.35;;;19.30;75.60;;;;;;5096823;28;20103;-39
2022/09/05 02:57:07;;;;;;;10.60;5.65;;;19.30;75.50;;;;;;5097184;28;20020;-38
2022/09/05 02:59:45;;;;;;;7.13;5.85;;;19.30;75.40;;;;;;5094634;28;20523;-39
2022/09/05 03:02:35;;;;;;;9.18;5.75;;;19.40;75.20;;;;;;5094425;28;20438;-39
2022/09/05 03:05:35;;;;;;;8.23;5.00;;;19.50;74.80;;;;;;5096052;28;20032;-38
2022/09/05 03:08:01;;;;;;;;;;;19.60;74.40;;;;;;5094224;28;20040;-39
2022/09/05 03:11:10;;;;;;;11.40;5.75;;;19.60;74.20;;;;;;5096582;28;20409;-38
2022/09/05 03:14:07;;;;;;;8.07;4.72;;;19.60;73.90;;;;;;5095086;28;20182;-38
2022/09/05 03:17:07;;;;;;;5.75;4.90;;;19.70;73.70;;;;;;5096358;28;20384;-38
2022/09/05 03:19:38;;;;;;;5.93;5.00;;;19.60;73.80;;;;;;5096424;28;20425;-38
2022/09/05 03:22:09;;;;;;;8.25;5.75;;;19.60;73.90;;;;;;5095145;28;20028;-39
2022/09/05 03:24:56;;;;;;;10.75;5.78;;;19.50;74.00;;;;;;5096420;28;20054;-39
2022/09/05 03:27:40;;;;;;;5.45;4.88;;;19.50;74.40;;;;;;5095807;28;20020;-39
2022/09/05 03:30:10;;;;;;;6.60;4.88;;;19.50;74.60;;;;;;5096125;28;20175;-37
2022/09/05 03:33:22;;;;;;;7.13;5.13;;;19.40;74.70;;;;;;5096185;28;20027;-40
2022/09/05 03:36:12;;;;;;;6.43;5.05;;;19.30;74.90;;;;;;5095251;28;20028;-38
2022/09/05 03:39:01;;;;;;;7.38;5.38;;;19.30;75.00;;;;;;5096165;28;20028;-38
2022/09/05 03:42:01;;;;;;;7.18;5.05;;;19.30;75.00;;;;;;5096153;28;20126;-38
2022/09/05 03:45:04;;;;;;;8.82;6.10;;;19.30;75.10;;;;;;5096170;28;20354;-38
2022/09/05 03:47:41;;;;;;;8.00;5.60;;;19.30;75.30;;;;;;5096234;28;20131;-38
2022/09/05 03:50:13;;;;;;;7.30;5.10;;;19.30;75.40;;;;;;5096383;28;20031;-38
2022/09/05 03:52:57;;;;;;;13.25;5.22;;;19.30;75.50;;;;;;5095984;28;20020;-38
2022/09/05 03:55:52;;;;;;;8.85;6.13;;;19.30;75.50;;;;;;5096096;28;20474;-38
2022/09/05 03:58:42;;;;;;;7.03;5.55;;;19.20;75.70;;;;;;5096041;28;20377;-39
2022/09/05 04:01:14;;;;;;;;;;;19.20;75.60;;;;;;5096095;28;20479;-38
2022/09/05 04:03:49;;;;;;;6.55;4.97;;;19.10;75.70;;;;;;5095837;28;19915;-38
2022/09/05 04:06:37;;;;;;;6.20;4.82;;;19.10;76.00;;;;;;5094330;28;20080;-38
2022/09/05 04:09:18;;;;;;;8.18;5.68;;;19.00;76.20;;;;;;5095479;28;20093;-39
2022/09/05 04:11:48;;;;;;;6.00;5.00;;;19.00;76.30;;;;;;5095503;28;20380;-39
2022/09/05 04:14:42;;;;;;;6.88;4.93;;;18.90;76.50;;;;;;5095703;28;20467;-39
2022/09/05 04:17:41;;;;;;;7.65;5.38;;;18.80;76.60;;;;;;5095351;28;20043;-41
2022/09/05 04:20:10;;;;;;;6.25;5.65;;;18.80;76.80;;;;;;5095449;28;20020;-39
2022/09/05 04:23:01;;;;;;;8.73;5.77;;;18.80;76.90;;;;;;5095577;28;20078;-39
2022/09/05 04:25:40;;;;;;;11.55;5.38;;;18.70;77.10;;;;;;5093908;28;20032;-39
2022/09/05 04:28:30;;;;;;;9.68;6.50;;;18.70;77.30;;;;;;5095091;28;20503;-38
2022/09/05 04:31:11;;;;;;;7.13;5.55;;;18.60;77.30;;;;;;5095384;28;20024;-38
2022/09/05 04:34:14;;;;;;;9.65;5.97;;;18.60;77.30;;;;;;5095407;28;20024;-40
2022/09/05 18:26:23;;;;;;;3.15;1.98;;;26.40;41.00;;;;;;4991359;28;20388;-48
2022/09/05 18:28:57;;;;;;;8.60;2.25;;;26.40;41.40;;;;;;4991331;28;20030;-49
2022/09/05 18:31:38;;;;;;;4.53;2.10;;;26.40;41.70;;;;;;4990779;28;20444;-48
2022/09/05 18:34:13;;;;;;;3.90;2.55;;;26.40;41.30;;;;;;4990666;28;20117;-50
2022/09/05 18:36:43;;;;;;;4.47;2.00;;;26.30;41.50;;;;;;4990957;28;20030;-48
2022/09/05 18:39:36;;;;;;;8.13;2.50;;;26.30;41.60;;;;;;4990737;28;20497;-48
2022/09/05 18:42:10;;;;;;;4.95;2.80;;;26.20;42.00;;;;;;4994292;28;20470;-49
2022/09/05 18:44:45;;;;;;;6.93;2.40;;;26.20;41.90;;;;;;4988881;28;20033;-51
2022/09/05 18:47:14;;;;;;;13.10;3.67;;;26.10;42.50;;;;;;4988899;28;20027;-49
2022/09/05 18:49:47;;;;;;;7.25;2.75;;;26.00;42.90;;;;;;4990562;28;20034;-49
2022/09/05 18:52:29;;;;;;;7.95;2.72;;;25.90;43.00;;;;;;4990498;28;20173;-47
2022/09/05 18:55:09;;;;;;;6.45;2.63;;;25.80;43.40;;;;;;4990313;28;20481;-48
2022/09/05 18:57:36;;;;;;;;;;;25.80;43.50;;;;;;4990774;28;20485;-50
2022/09/05 19:00:12;;;;;;;8.98;2.58;;;25.80;43.60;;;;;;4990350;28;20358;-49
2022/09/05 19:02:44;;;;;;;6.75;2.35;;;25.70;43.70;;;;;;4988780;28;20031;-50
2022/09/05 19:05:36;;;;;;;8.20;3.40;;;25.70;43.80;;;;;;4990210;28;20474;-48
2022/09/05 19:08:11;;;;;;;9.98;3.17;;;25.70;43.70;;;;;;4990220;28;20090;-48
2022/09/05 19:10:38;;;;;;;12.20;3.42;;;25.60;43.90;;;;;;4989491;28;20143;-51
2022/09/05 19:13:12;;;;;;;6.60;3.30;;;25.60;44.20;;;;;;4989353;28;20027;-47
2022/09/05 19:15:51;;;;;;;6.35;2.78;;;25.50;44.10;;;;;;4989083;28;20027;-51
2022/09/05 19:18:19;;;;;;;6.43;3.10;;;25.50;44.40;;;;;;4990308;28;20128;-48
2022/09/05 19:20:54;;;;;;;9.10;3.25;;;25.50;45.40;;;;;;4989030;28;20030;-48
2022/09/05 19:23:27;;;;;;;7.22;4.20;;;25.40;45.60;;;;;;4989229;28;20035;-48
2022/09/05 19:25:56;;;;;;;5.13;4.25;;;25.40;45.80;;;;;;5007393;28;20046;-49
2022/09/05 19:28:26;;;;;;;8.25;4.43;;;25.30;46.40;;;;;;5010164;28;20065;-50
2022/09/05 19:31:11;;;;;;;15.25;5.97;;;25.30;46.60;;;;;;5010132;28;20029;-50
2022/09/05 19:33:37;;;;;;;7.65;4.80;;;25.20;46.70;;;;;;5009997;28;20102;-49
2022/09/05 19:36:06;;;;;;;12.18;5.88;;;25.10;47.00;;;;;;5005411;28;20106;-50
2022/09/05 19:38:46;;;;;;;11.00;5.63;;;25.00;47.20;;;;;;4995034;28;20328;-49
2022/09/05 19:41:14;;;;;;;;;;;24.90;47.50;;;;;;4996423;28;20027;-49
2022/09/05 19:43:57;;;;;;;12.35;5.18;;;24.80;48.00;;;;;;4996383;28;20350;-53
2022/09/05 19:46:23;;;;;;;9.07;3.97;;;24.80;48.40;;;;;;4997018;28;20097;-49
2022/09/05 19:49:10;;;;;;;11.13;5.45;;;24.70;48.50;;;;;;4996398;28;20105;-48
2022/09/05 19:51:37;;;;;;;9.05;4.72;;;24.60;49.40;;;;;;4998241;28;20026;-40
2022/09/05 19:54:03;;;;;;;11.80;6.38;;;24.60;49.80;;;;;;4996044;28;20034;-39
2022/09/05 19:56:54;;;;;;;9.63;5.93;;;24.60;50.20;;;;;;4995816;28;20023;-39
2022/09/05 19:59:26;;;;;;;13.15;6.78;;;24.60;50.60;;;;;;4994351;28;20058;-38
2022/09/05 20:01:52;;;;;;;13.80;6.28;;;24.50;51.20;;;;;;4996049;28;20033;-39
2022/09/05 20:04:20;;;;;;;8.93;6.13;;;24.40;51.60;;;;;;4995613;28;20447;-39
2022/09/05 20:06:47;;;;;;;9.27;4.30;;;24.30;52.00;;;;;;4995888;28;20019;-40
2022/09/05 20:09:17;;;;;;;13.05;5.25;;;24.30;52.30;;;;;;4995415;28;20157;-39
2022/09/05 20:11:51;;;;;;;;;;;24.20;52.70;;;;;;4996145;28;20066;-39
2022/09/05 20:14:18;;;;;;;9.75;3.67;;;24.00;53.10;;;;;;4994441;28;20031;-40
2022/09/05 20:16:45;;;;;;;10.90;3.97;;;23.90;53.10;;;;;;4995818;28;20157;-39
2022/09/05 20:19:27;;;;;;;7.22;3.25;;;23.90;53.20;;;;;;4995807;28;20047;-39
2022/09/05 20:21:52;;;;;;;5.72;3.75;;;23.80;53.50;;;;;;4995604;28;20501;-40
2022/09/05 20:24:19;;;;;;;8.60;4.40;;;24.00;53.20;;;;;;4995098;28;20141;-39
2022/09/05 20:26:46;;;;;;;6.05;4.43;;;23.90;53.50;;;;;;4995476;28;20065;-43
2022/09/05 20:29:21;;;;;;;7.50;4.63;;;23.80;53.70;;;;;;4995434;28;20090;-38
2022/09/05 20:31:48;;;;;;;7.22;3.53;;;23.80;54.10;;;;;;4995481;28;20022;-38
2022/09/05 20:34:30;;;;;;;6.60;3.10;;;23.70;54.10;;;;;;4995247;28;20046;-38
2022/09/05 20:37:00;;;;;;;6.68;4.25;;;23.60;54.40;;;;;;4995480;28;20474;-40
2022/09/05 20:39:29;;;;;;;9.55;4.22;;;23.60;54.40;;;;;;4995423;28;20026;-40
2022/09/05 20:41:55;;;;;;;6.50;3.35;;;23.60;54.10;;;;;;4995203;28;20053;-38
2022/09/05 20:44:31;;;;;;;16.30;5.82;;;23.50;54.10;;;;;;4994861;28;20059;-39
2022/09/05 20:47:05;;;;;;;6.68;4.88;;;23.50;54.90;;;;;;4995450;28;20030;-39
2022/09/05 20:49:52;;;;;;;7.85;4.78;;;23.50;55.30;;;;;;4994271;28;20046;-38
2022/09/05 20:52:29;;;;;;;7.45;3.85;;;23.30;55.30;;;;;;4994709;28;20363;-39
2022/09/05 20:54:56;;;;;;;6.18;3.90;;;23.30;55.70;;;;;;4994945;28;20498;-39
2022/09/05 20:57:30;;;;;;;11.05;4.13;;;23.20;55.90;;;;;;4994913;28;20030;-40
2022/09/05 21:00:10;;;;;;;7.03;4.22;;;23.20;56.40;;;;;;4995365;28;20034;-39
2022/09/05 21:02:54;;;;;;;7.75;4.15;;;23.10;56.40;;;;;;4995228;28;20026;-39
2022/09/05 21:05:38;;;;;;;8.10;4.25;;;23.00;56.60;;;;;;4994886;28;20165;-39
2022/09/05 21:08:31;;;;;;;9.43;5.20;;;22.90;57.10;;;;;;4993200;28;20033;-38
2022/09/05 21:11:02;;;;;;;11.80;7.13;;;22.80;57.30;;;;;;4994766;28;20034;-39
2022/09/05 21:13:33;;;;;;;10.50;4.63;;;22.80;57.40;;;;;;4994850;28;20037;-40
2022/09/05 21:15:59;;;;;;;6.15;4.10;;;22.80;57.60;;;;;;4993027;28;20102;-39
2022/09/05 21:18:28;;;;;;;10.00;4.97;;;22.90;57.90;;;;;;4994249;28;20045;-38
2022/09/05 21:21:05;;;;;;;7.45;4.65;;;22.80;58.10;;;;;;4994478;28;20030;-37
2022/09/05 21:23:33;;;;;;;6.38;4.32;;;22.70;58.20;;;;;;4994584;28;20084;-40
2022/09/05 21:26:01;;;;;;;9.20;3.85;;;22.70;58.20;;;;;;4994393;28;20050;-39
2022/09/05 21:28:34;;;;;;;10.98;3.70;;;22.70;58.30;;;;;;4994443;28;20509;-40
2022/09/05 21:31:02;;;;;;;9.23;3.20;;;22.60;58.60;;;;;;4994310;28;20085;-39
2022/09/05 21:33:29;;;;;;;7.75;3.78;;;22.60;58.90;;;;;;4994115;28;20022;-39
2022/09/05 21:36:02;;;;;;;6.22;3.63;;;22.60;58.80;;;;;;4994842;28;20053;-39
2022/09/05 21:38:36;;;;;;;4.47;3.33;;;22.50;58.70;;;;;;4993902;28;20066;-39
2022/09/05 21:41:03;;;;;;;8.02;3.47;;;22.50;57.80;;;;;;4993826;28;20036;-39
2022/09/05 21:43:31;;;;;;;8.40;3.20;;;22.50;57.90;;;;;;4992501;28;20387;-40
2022/09/05 21:45:58;;;;;;;5.85;3.15;;;22.50;57.30;;;;;;4994467;28;20076;-39
2022/09/05 21:48:24;;;;;;;8.95;3.30;;;22.50;57.50;;;;;;4994196;28;20034;-40
2022/09/05 21:50:59;;;;;;;7.05;3.33;;;22.50;57.70;;;;;;4993899;28;20072;-38
2022/09/05 21:53:30;;;;;;;6.65;3.78;;;22.50;57.60;;;;;;4993849;28;20018;-38
2022/09/05 21:56:05;;;;;;;3.95;2.92;;;22.40;57.50;;;;;;4993814;28;20042;-38
2022/09/05 21:58:35;;;;;;;5.72;3.55;;;22.50;56.90;;;;;;4993730;28;20160;-38
2022/09/05 22:01:02;;;;;;;6.63;4.22;;;22.40;57.50;;;;;;4993584;28;20023;-39
2022/09/05 22:03:30;;;;;;;5.72;3.47;;;22.50;57.80;;;;;;4993546;28;20039;-39
2022/09/05 22:05:56;;;;;;;11.05;5.53;;;22.50;57.50;;;;;;4993855;28;20026;-38
2022/09/05 22:08:21;;;;;;;5.45;3.20;;;22.30;58.50;;;;;;4993569;28;20173;-41
2022/09/05 22:10:49;;;;;;;3.78;2.50;;;22.30;58.90;;;;;;4994003;28;20420;-41
2022/09/05 22:13:15;;;;;;;7.85;2.47;;;22.20;58.80;;;;;;4992914;28;20030;-39
2022/09/05 22:15:40;;;;;;;7.47;2.53;;;22.20;57.60;;;;;;4993628;28;20148;-38
2022/09/05 22:18:06;;;;;;;7.70;2.88;;;22.20;56.40;;;;;;4993541;28;20022;-39
2022/09/05 22:20:32;;;;;;;4.43;2.90;;;22.20;56.00;;;;;;4992264;28;20062;-39
2022/09/05 22:22:59;;;;;;;6.72;2.75;;;22.30;55.60;;;;;;4992154;28;20035;-39
2022/09/05 22:25:31;;;;;;;11.40;2.67;;;22.30;55.00;;;;;;4993461;28;20408;-39
2022/09/05 22:28:05;;;;;;;7.65;2.15;;;22.30;55.00;;;;;;4994013;28;20023;-38
2022/09/05 22:30:34;;;;;;;4.95;2.75;;;22.40;54.60;;;;;;4993740;28;20498;-39
2022/09/05 22:33:00;;;;;;;8.02;2.70;;;22.40;54.60;;;;;;4992316;28;20449;-40
2022/09/05 22:35:25;;;;;;;10.10;2.58;;;22.50;54.30;;;;;;4993776;28;20416;-39
2022/09/05 22:37:57;;;;;;;3.25;2.30;;;22.40;54.00;;;;;;4993575;28;20058;-39
2022/09/05 22:40:23;;;;;;;3.70;2.10;;;22.40;54.20;;;;;;4993700;28;20030;-40
2022/09/05 22:43:00;;;;;;;7.72;2.60;;;22.40;55.00;;;;;;4993549;28;20031;-39
2022/09/05 22:45:27;;;;;;;6.93;3.25;;;22.30;55.50;;;;;;4993527;28;20030;-39
2022/09/05 22:47:53;;;;;;;4.95;2.88;;;22.30;55.90;;;;;;4992542;28;20022;-39
2022/09/05 22:50:19;;;;;;;4.20;2.50;;;22.30;56.00;;;;;;4993865;28;20534;-39
2022/09/05 22:52:45;;;;;;;8.90;2.83;;;22.20;56.00;;;;;;4993433;28;20026;-40
2022/09/05 22:55:10;;;;;;;7.82;2.35;;;22.20;55.40;;;;;;4993796;28;20048;-39
2022/09/05 22:57:40;;;;;;;5.97;3.13;;;22.20;55.20;;;;;;4993696;28;20026;-39
2022/09/05 23:00:07;;;;;;;5.72;2.50;;;22.10;55.70;;;;;;4993643;28;20518;-39
2022/09/05 23:02:34;;;;;;;3.90;2.60;;;22.10;55.70;;;;;;4993504;28;20030;-38
2022/09/05 23:05:00;;;;;;;4.03;2.20;;;22.10;55.70;;;;;;4993927;28;20050;-39
2022/09/05 23:07:26;;;;;;;3.63;2.55;;;22.10;55.60;;;;;;4993891;28;20080;-38
2022/09/05 23:09:52;;;;;;;6.53;2.40;;;22.10;55.70;;;;;;4994069;28;20034;-39
2022/09/05 23:12:17;;;;;;;3.72;2.40;;;22.10;55.80;;;;;;4996416;28;20030;-38
2022/09/05 23:14:43;;;;;;;7.47;1.90;;;22.10;56.00;;;;;;4997434;28;20157;-38
2022/09/05 23:17:11;;;;;;;7.53;2.25;;;22.00;55.70;;;;;;4997866;28;20030;-40
2022/09/05 23:19:37;;;;;;;6.57;1.92;;;21.90;55.70;;;;;;4997009;28;20054;-39
2022/09/05 23:22:03;;;;;;;6.47;2.67;;;21.90;55.80;;;;;;4997085;28;20057;-38
2022/09/05 23:24:28;;;;;;;5.40;2.17;;;21.90;55.90;;;;;;4996692;28;20054;-39
2022/09/05 23:26:54;;;;;;;8.15;2.65;;;21.90;55.80;;;;;;4996836;28;20014;-38
2022/09/05 23:29:20;;;;;;;4.85;2.17;;;21.80;56.00;;;;;;4996547;28;20045;-38
2022/09/05 23:31:46;;;;;;;3.10;2.10;;;21.80;56.20;;;;;;4996531;28;20030;-38
2022/09/05 23:34:11;;;;;;;6.50;2.45;;;21.80;56.10;;;;;;4995215;28;20137;-39
2022/09/05 23:36:37;;;;;;;5.88;2.35;;;21.80;56.00;;;;;;4996254;28;20040;-39
2022/09/05 23:39:03;;;;;;;6.82;3.30;;;21.70;56.00;;;;;;4997167;28;20022;-38
2022/09/05 23:41:29;;;;;;;5.68;2.50;;;21.80;55.90;;;;;;4996640;28;20102;-41
2022/09/05 23:43:55;;;;;;;3.78;1.70;;;21.70;56.00;;;;;;4996493;28;20050;-38
2022/09/05 23:46:20;;;;;;;3.58;2.00;;;21.70;56.20;;;;;;4996208;28;20513;-38
2022/09/05 23:48:46;;;;;;;8.18;2.22;;;21.80;56.10;;;;;;4996237;28;20130;-38
2022/09/05 23:51:12;;;;;;;9.90;2.65;;;21.90;55.90;;;;;;4996143;28;20109;-40
2022/09/05 23:53:38;;;;;;;5.13;2.78;;;21.80;56.20;;;;;;4996342;28;20035;-38
2022/09/05 23:56:06;;;;;;;3.80;2.25;;;21.80;56.10;;;;;;4995193;28;20030;-38
2022/09/05 23:58:33;;;;;;;4.93;3.58;;;21.80;56.30;;;;;;4994799;28;20022;-37
